createdAt,value
2023-05-19T00:00:33.774Z,985.48
2023-05-19T00:01:33.573Z,985.49
2023-05-19T00:02:33.688Z,985.49
2023-05-19T00:03:33.593Z,985.44
2023-05-19T00:04:33.646Z,985.47
2023-05-19T00:05:33.580Z,985.47
2023-05-19T00:06:33.491Z,985.43
2023-05-19T00:07:33.496Z,985.40
2023-05-19T00:08:33.451Z,985.43
2023-05-19T00:09:33.445Z,985.39
2023-05-19T00:10:33.642Z,985.40
2023-05-19T00:11:33.421Z,985.41
2023-05-19T00:12:33.408Z,985.41
2023-05-19T00:13:33.396Z,985.40
2023-05-19T00:14:33.394Z,985.40
2023-05-19T00:15:33.387Z,985.39
2023-05-19T00:16:33.440Z,985.43
2023-05-19T00:17:33.391Z,985.37
2023-05-19T00:18:33.332Z,985.40
2023-05-19T00:19:33.337Z,985.40
2023-05-19T00:20:33.618Z,985.40
2023-05-19T00:21:33.306Z,985.46
2023-05-19T00:22:33.280Z,985.41
2023-05-19T00:23:33.272Z,985.37
2023-05-19T00:24:33.250Z,985.39
2023-05-19T00:25:33.285Z,985.34
2023-05-19T00:26:33.245Z,985.37
2023-05-19T00:27:33.229Z,985.32
2023-05-19T00:28:33.208Z,985.33
2023-05-19T00:29:33.193Z,985.32
2023-05-19T00:30:33.407Z,985.32
2023-05-19T00:31:33.192Z,985.31
2023-05-19T00:32:33.187Z,985.30
2023-05-19T00:33:33.170Z,985.28
2023-05-19T00:34:33.132Z,985.30
2023-05-19T00:35:33.139Z,985.30
2023-05-19T00:36:33.102Z,985.32
2023-05-19T00:37:33.103Z,985.30
2023-05-19T00:38:33.070Z,985.31
2023-05-19T00:39:33.071Z,985.25
2023-05-19T00:40:33.286Z,985.27
2023-05-19T00:41:33.032Z,985.22
2023-05-19T00:42:33.025Z,985.21
2023-05-19T00:43:33.018Z,985.23
2023-05-19T00:44:32.998Z,985.15
2023-05-19T00:45:32.978Z,985.18
2023-05-19T00:46:33.007Z,985.24
2023-05-19T00:47:33.093Z,985.21
2023-05-19T00:48:32.946Z,985.21
2023-05-19T00:49:32.957Z,985.23
2023-05-19T00:50:33.148Z,985.12
2023-05-19T00:51:32.919Z,985.20
2023-05-19T00:52:32.890Z,985.16
2023-05-19T00:53:32.884Z,985.25
2023-05-19T00:54:32.877Z,985.14
2023-05-19T00:55:32.851Z,985.15
2023-05-19T00:56:32.845Z,985.11
2023-05-19T00:57:32.835Z,985.05
2023-05-19T00:58:32.969Z,985.13
2023-05-19T00:59:32.830Z,985.13
2023-05-19T01:00:33.127Z,985.13
2023-05-19T01:01:32.838Z,985.07
2023-05-19T01:02:32.847Z,985.07
2023-05-19T01:03:32.971Z,985.09
2023-05-19T01:04:32.737Z,985.10
2023-05-19T01:05:32.731Z,985.12
2023-05-19T01:06:32.709Z,985.17
2023-05-19T01:07:32.708Z,985.09
2023-05-19T01:08:32.712Z,985.15
2023-05-19T01:09:32.688Z,985.06
2023-05-19T01:10:32.926Z,985.14
2023-05-19T01:11:32.655Z,985.02
2023-05-19T01:12:32.634Z,985.02
2023-05-19T01:13:32.645Z,985.04
2023-05-19T01:14:32.643Z,985.08
2023-05-19T01:15:32.607Z,984.92
2023-05-19T01:16:32.643Z,984.98
2023-05-19T01:17:32.636Z,984.99
2023-05-19T01:18:32.578Z,984.93
2023-05-19T01:19:32.545Z,984.92
2023-05-19T01:20:32.797Z,984.94
2023-05-19T01:21:32.523Z,984.94
2023-05-19T01:22:32.513Z,984.94
2023-05-19T01:23:32.491Z,984.94
2023-05-19T01:24:32.478Z,984.94
2023-05-19T01:25:32.474Z,984.96
2023-05-19T01:26:32.459Z,984.92
2023-05-19T01:27:32.488Z,984.92
2023-05-19T01:28:32.453Z,984.92
2023-05-19T01:29:32.421Z,984.88
2023-05-19T01:30:32.673Z,984.92
2023-05-19T01:31:32.462Z,984.91
2023-05-19T01:32:32.470Z,984.87
2023-05-19T01:33:32.383Z,984.94
2023-05-19T01:34:32.365Z,984.86
2023-05-19T01:35:32.364Z,984.87
2023-05-19T01:36:32.344Z,984.88
2023-05-19T01:37:32.334Z,984.87
2023-05-19T01:38:32.315Z,984.84
2023-05-19T01:39:32.302Z,984.92
2023-05-19T01:40:32.499Z,984.84
2023-05-19T01:41:32.286Z,984.80
2023-05-19T01:42:32.262Z,984.84
2023-05-19T01:43:32.251Z,984.84
2023-05-19T01:44:32.229Z,984.86
2023-05-19T01:45:32.250Z,984.86
2023-05-19T01:46:32.275Z,984.83
2023-05-19T01:47:32.228Z,984.91
2023-05-19T01:48:32.186Z,984.94
2023-05-19T01:49:32.184Z,984.83
2023-05-19T01:50:32.414Z,984.92
2023-05-19T01:51:32.157Z,984.90
2023-05-19T01:52:32.144Z,984.90
2023-05-19T01:53:32.132Z,984.85
2023-05-19T01:54:32.099Z,984.86
2023-05-19T01:55:32.113Z,984.84
2023-05-19T01:56:32.094Z,984.79
2023-05-19T01:57:32.068Z,984.86
2023-05-19T01:58:32.054Z,984.86
2023-05-19T01:59:32.058Z,984.89
2023-05-19T02:00:32.360Z,984.84
2023-05-19T02:01:32.078Z,984.89
2023-05-19T02:02:32.058Z,984.93
2023-05-19T02:03:31.995Z,984.90
2023-05-19T02:04:32.042Z,984.91
2023-05-19T02:05:31.974Z,984.90
2023-05-19T02:06:31.949Z,984.93
2023-05-19T02:07:31.958Z,984.90
2023-05-19T02:08:31.923Z,985.02
2023-05-19T02:09:31.928Z,984.99
2023-05-19T02:10:32.083Z,984.98
2023-05-19T02:11:31.889Z,985.00
2023-05-19T02:12:31.874Z,985.06
2023-05-19T02:13:31.876Z,985.01
2023-05-19T02:14:31.859Z,985.08
2023-05-19T02:15:31.868Z,985.03
2023-05-19T02:16:31.838Z,985.04
2023-05-19T02:17:31.880Z,985.01
2023-05-19T02:18:31.812Z,985.00
2023-05-19T02:19:31.789Z,985.01
2023-05-19T02:20:31.969Z,985.04
2023-05-19T02:21:31.764Z,985.04
2023-05-19T02:22:31.759Z,985.04
2023-05-19T02:23:31.747Z,985.02
2023-05-19T02:24:31.719Z,985.04
2023-05-19T02:25:31.710Z,985.00
2023-05-19T02:26:31.686Z,985.01
2023-05-19T02:27:31.677Z,984.98
2023-05-19T02:28:31.673Z,985.02
2023-05-19T02:29:31.658Z,984.97
2023-05-19T02:30:32.006Z,984.95
2023-05-19T02:31:31.628Z,984.95
2023-05-19T02:32:31.664Z,984.91
2023-05-19T02:33:31.634Z,984.97
2023-05-19T02:34:31.593Z,984.89
2023-05-19T02:35:31.579Z,984.90
2023-05-19T02:36:31.552Z,984.94
2023-05-19T02:37:31.570Z,984.90
2023-05-19T02:38:31.543Z,984.91
2023-05-19T02:39:31.523Z,984.92
2023-05-19T02:40:31.745Z,984.91
2023-05-19T02:41:31.519Z,984.81
2023-05-19T02:42:31.493Z,984.81
2023-05-19T02:43:31.479Z,984.85
2023-05-19T02:44:31.474Z,984.80
2023-05-19T02:45:31.460Z,984.81
2023-05-19T02:46:31.472Z,984.78
2023-05-19T02:47:31.465Z,984.77
2023-05-19T02:48:31.408Z,984.81
2023-05-19T02:49:31.395Z,984.75
2023-05-19T02:50:31.609Z,984.72
2023-05-19T02:51:31.383Z,984.75
2023-05-19T02:52:31.358Z,984.70
2023-05-19T02:53:31.351Z,984.66
2023-05-19T02:54:31.333Z,984.68
2023-05-19T02:55:31.320Z,984.66
2023-05-19T02:56:31.324Z,984.65
2023-05-19T02:57:31.296Z,984.65
2023-05-19T02:58:31.287Z,984.69
2023-05-19T02:59:31.274Z,984.66
2023-05-19T03:00:31.501Z,984.65
2023-05-19T03:01:31.334Z,984.66
2023-05-19T03:02:31.299Z,984.68
2023-05-19T03:03:31.268Z,984.66
2023-05-19T03:04:31.211Z,984.65
2023-05-19T03:05:31.225Z,984.68
2023-05-19T03:06:31.173Z,984.64
2023-05-19T03:07:31.181Z,984.65
2023-05-19T03:08:31.160Z,984.60
2023-05-19T03:09:31.151Z,984.63
2023-05-19T03:10:31.307Z,984.66
2023-05-19T03:11:31.114Z,984.62
2023-05-19T03:12:31.112Z,984.63
2023-05-19T03:13:31.086Z,984.68
2023-05-19T03:14:31.088Z,984.67
2023-05-19T03:15:31.067Z,984.71
2023-05-19T03:16:31.125Z,984.66
2023-05-19T03:17:31.104Z,984.69
2023-05-19T03:18:31.049Z,984.67
2023-05-19T03:19:31.022Z,984.67
2023-05-19T03:20:31.230Z,984.64
2023-05-19T03:21:30.997Z,984.63
2023-05-19T03:22:30.980Z,984.64
2023-05-19T03:23:30.987Z,984.70
2023-05-19T03:24:30.952Z,984.68
2023-05-19T03:25:30.940Z,984.66
2023-05-19T03:26:30.947Z,984.69
2023-05-19T03:27:30.907Z,984.68
2023-05-19T03:28:30.928Z,984.68
2023-05-19T03:29:30.892Z,984.67
2023-05-19T03:30:31.050Z,984.67
2023-05-19T03:31:30.870Z,984.72
2023-05-19T03:32:30.906Z,984.69
2023-05-19T03:33:30.868Z,984.78
2023-05-19T03:34:30.828Z,984.75
2023-05-19T03:35:30.817Z,984.75
2023-05-19T03:36:30.803Z,984.73
2023-05-19T03:37:30.792Z,984.79
2023-05-19T03:38:30.791Z,984.80
2023-05-19T03:39:30.756Z,984.76
2023-05-19T03:40:30.977Z,984.77
2023-05-19T03:41:30.740Z,984.82
2023-05-19T03:42:30.736Z,984.77
2023-05-19T03:43:30.721Z,984.80
2023-05-19T03:44:30.705Z,984.75
2023-05-19T03:45:30.694Z,984.73
2023-05-19T03:46:30.679Z,984.76
2023-05-19T03:47:30.671Z,984.73
2023-05-19T03:48:30.662Z,984.79
2023-05-19T03:49:30.656Z,984.79
2023-05-19T04:03:08.714Z,984.96
2023-05-19T04:04:08.620Z,984.93
2023-05-19T04:05:08.561Z,984.95
2023-05-19T04:06:08.523Z,985.01
2023-05-19T04:07:08.510Z,985.00
2023-05-19T04:08:08.494Z,984.94
2023-05-19T04:09:08.481Z,985.04
2023-05-19T04:10:08.474Z,984.98
2023-05-19T04:11:08.468Z,984.94
2023-05-19T04:12:08.442Z,985.03
2023-05-19T04:13:08.437Z,985.00
2023-05-19T04:14:08.431Z,985.00
2023-05-19T04:15:08.405Z,984.94
2023-05-19T04:16:08.458Z,985.01
2023-05-19T04:17:08.371Z,984.96
2023-05-19T04:18:08.437Z,984.96
2023-05-19T04:19:08.477Z,984.92
2023-05-19T04:20:08.341Z,984.93
2023-05-19T04:21:08.347Z,984.91
2023-05-19T04:22:08.315Z,984.94
2023-05-19T04:23:08.304Z,984.93
2023-05-19T04:24:08.284Z,984.97
2023-05-19T04:25:08.269Z,984.95
2023-05-19T04:26:08.265Z,984.93
2023-05-19T04:27:08.240Z,984.97
2023-05-19T04:28:08.249Z,984.98
2023-05-19T04:29:08.213Z,984.96
2023-05-19T04:30:08.230Z,984.96
2023-05-19T04:31:08.200Z,984.89
2023-05-19T04:32:08.189Z,984.96
2023-05-19T04:33:08.240Z,984.95
2023-05-19T04:34:08.156Z,984.94
2023-05-19T04:35:08.156Z,984.95
2023-05-19T04:36:08.137Z,984.93
2023-05-19T04:37:08.117Z,984.95
2023-05-19T04:38:08.108Z,984.97
2023-05-19T04:39:08.105Z,984.94
2023-05-19T04:40:08.076Z,984.90
2023-05-19T04:41:08.076Z,984.92
2023-05-19T04:42:08.056Z,984.97
2023-05-19T04:43:08.045Z,984.89
2023-05-19T04:44:08.035Z,984.99
2023-05-19T04:45:08.023Z,984.94
2023-05-19T04:46:08.023Z,984.93
2023-05-19T04:47:07.991Z,984.95
2023-05-19T04:48:08.070Z,984.94
2023-05-19T04:49:07.964Z,984.93
2023-05-19T04:50:07.960Z,985.00
2023-05-19T04:51:07.938Z,984.90
2023-05-19T04:52:07.942Z,984.92
2023-05-19T04:53:07.916Z,984.98
2023-05-19T04:54:07.897Z,984.95
2023-05-19T04:55:07.888Z,984.99
2023-05-19T04:56:07.888Z,984.92
2023-05-19T04:57:07.855Z,984.92
2023-05-19T04:58:07.873Z,984.93
2023-05-19T04:59:07.837Z,984.91
2023-05-19T05:00:07.819Z,984.92
2023-05-19T05:01:07.814Z,984.88
2023-05-19T05:02:07.857Z,984.95
2023-05-19T05:03:07.898Z,984.94
2023-05-19T05:04:07.822Z,984.89
2023-05-19T05:05:07.766Z,984.86
2023-05-19T05:06:07.745Z,984.90
2023-05-19T05:07:07.732Z,984.88
2023-05-19T05:08:07.738Z,984.94
2023-05-19T05:09:07.711Z,984.96
2023-05-19T05:10:07.700Z,984.89
2023-05-19T05:11:07.681Z,984.90
2023-05-19T05:12:07.676Z,984.91
2023-05-19T05:13:08.389Z,984.88
2023-05-19T05:14:07.640Z,984.90
2023-05-19T05:15:07.634Z,984.91
2023-05-19T05:16:07.688Z,984.86
2023-05-19T05:17:07.610Z,984.88
2023-05-19T05:18:07.645Z,984.83
2023-05-19T05:19:07.732Z,984.88
2023-05-19T05:20:07.567Z,984.88
2023-05-19T05:21:07.558Z,984.84
2023-05-19T05:22:07.558Z,984.84
2023-05-19T05:23:07.521Z,984.79
2023-05-19T05:24:07.546Z,984.84
2023-05-19T05:25:07.515Z,984.82
2023-05-19T05:26:07.498Z,984.80
2023-05-19T05:27:07.466Z,984.78
2023-05-19T05:28:07.455Z,984.75
2023-05-19T05:29:07.452Z,984.82
2023-05-19T05:30:07.434Z,984.78
2023-05-19T05:31:07.434Z,984.80
2023-05-19T05:32:07.421Z,984.82
2023-05-19T05:33:07.464Z,984.80
2023-05-19T05:34:07.382Z,984.72
2023-05-19T05:35:07.392Z,984.75
2023-05-19T05:36:07.364Z,984.73
2023-05-19T05:37:07.339Z,984.75
2023-05-19T05:38:07.335Z,984.74
2023-05-19T05:39:07.315Z,984.76
2023-05-19T05:40:07.325Z,984.77
2023-05-19T05:41:07.286Z,984.76
2023-05-19T05:42:07.273Z,984.80
2023-05-19T05:43:07.256Z,984.80
2023-05-19T05:44:07.268Z,984.80
2023-05-19T05:45:07.233Z,984.84
2023-05-19T05:46:07.259Z,984.80
2023-05-19T05:47:07.217Z,984.82
2023-05-19T05:48:07.270Z,984.88
2023-05-19T05:49:07.191Z,984.81
2023-05-19T05:50:07.172Z,984.78
2023-05-19T05:51:07.183Z,984.80
2023-05-19T05:52:07.174Z,984.82
2023-05-19T05:53:07.149Z,984.79
2023-05-19T05:54:07.135Z,984.80
2023-05-19T05:55:07.125Z,984.76
2023-05-19T05:56:07.111Z,984.72
2023-05-19T05:57:07.090Z,984.76
2023-05-19T05:58:07.087Z,984.76
2023-05-19T05:59:07.064Z,984.76
2023-05-19T06:00:07.088Z,984.73
2023-05-19T06:01:07.041Z,984.75
2023-05-19T06:02:07.076Z,984.80
2023-05-19T06:03:07.070Z,984.82
2023-05-19T06:04:07.007Z,984.83
2023-05-19T06:05:07.006Z,984.83
2023-05-19T06:06:06.975Z,984.89
2023-05-19T06:07:06.960Z,984.86
2023-05-19T06:08:06.955Z,984.78
2023-05-19T06:09:06.931Z,984.82
2023-05-19T06:10:06.922Z,984.79
2023-05-19T06:11:06.910Z,984.76
2023-05-19T06:12:06.922Z,984.86
2023-05-19T06:13:06.908Z,984.84
2023-05-19T06:14:06.886Z,984.78
2023-05-19T06:15:06.861Z,984.78
2023-05-19T06:16:06.899Z,984.80
2023-05-19T06:17:06.835Z,984.81
2023-05-19T06:18:06.857Z,984.80
2023-05-19T06:19:06.814Z,984.76
2023-05-19T06:20:06.786Z,984.78
2023-05-19T06:21:06.774Z,984.77
2023-05-19T06:22:06.790Z,984.72
2023-05-19T06:23:06.749Z,984.73
2023-05-19T06:24:06.757Z,984.73
2023-05-19T06:25:06.732Z,984.70
2023-05-19T06:26:06.726Z,984.73
2023-05-19T06:27:06.703Z,984.70
2023-05-19T06:28:06.709Z,984.69
2023-05-19T06:29:06.674Z,984.67
2023-05-19T06:30:06.697Z,984.71
2023-05-19T06:31:06.731Z,984.68
2023-05-19T06:32:06.665Z,984.68
2023-05-19T06:33:06.693Z,984.69
2023-05-19T06:34:06.622Z,984.74
2023-05-19T06:35:06.612Z,984.74
2023-05-19T06:36:06.598Z,984.69
2023-05-19T06:37:06.566Z,984.69
2023-05-19T06:38:06.564Z,984.75
2023-05-19T06:39:06.546Z,984.75
2023-05-19T06:40:06.563Z,984.72
2023-05-19T06:41:06.522Z,984.74
2023-05-19T06:42:06.507Z,984.78
2023-05-19T06:43:06.499Z,984.78
2023-05-19T06:44:06.484Z,984.77
2023-05-19T06:45:06.473Z,984.78
2023-05-19T06:46:06.450Z,984.80
2023-05-19T06:47:06.534Z,984.80
2023-05-19T06:48:06.475Z,984.82
2023-05-19T06:49:06.420Z,984.82
2023-05-19T06:50:06.417Z,984.75
2023-05-19T06:51:06.389Z,984.81
2023-05-19T06:52:06.402Z,984.79
2023-05-19T06:53:06.371Z,984.78
2023-05-19T06:54:06.377Z,984.76
2023-05-19T06:55:06.357Z,984.75
2023-05-19T06:56:06.333Z,984.71
2023-05-19T06:57:06.309Z,984.67
2023-05-19T06:58:06.303Z,984.66
2023-05-19T06:59:06.295Z,984.60
2023-05-19T07:00:06.286Z,984.68
2023-05-19T07:01:06.261Z,984.66
2023-05-19T07:02:06.262Z,984.63
2023-05-19T07:03:06.378Z,984.59
2023-05-19T07:04:06.343Z,984.65
2023-05-19T07:05:06.213Z,984.66
2023-05-19T07:06:08.088Z,984.57
2023-05-19T07:07:06.180Z,984.55
2023-05-19T07:08:06.185Z,984.56
2023-05-19T07:09:06.166Z,984.50
2023-05-19T07:10:06.149Z,984.50
2023-05-19T07:11:06.139Z,984.50
2023-05-19T07:12:06.127Z,984.52
2023-05-19T07:13:06.130Z,984.53
2023-05-19T07:14:06.096Z,984.53
2023-05-19T07:15:06.083Z,984.57
2023-05-19T07:16:06.093Z,984.58
2023-05-19T07:17:06.107Z,984.55
2023-05-19T07:18:06.092Z,984.53
2023-05-19T07:19:06.101Z,984.56
2023-05-19T07:20:06.025Z,984.53
2023-05-19T07:21:05.995Z,984.51
2023-05-19T07:22:06.009Z,984.54
2023-05-19T07:23:05.992Z,984.57
2023-05-19T07:24:05.979Z,984.48
2023-05-19T07:25:05.942Z,984.50
2023-05-19T07:26:05.940Z,984.48
2023-05-19T07:27:05.981Z,984.47
2023-05-19T07:28:05.909Z,984.44
2023-05-19T07:29:05.918Z,984.45
2023-05-19T07:30:05.912Z,984.41
2023-05-19T07:31:05.952Z,984.43
2023-05-19T07:32:05.952Z,984.44
2023-05-19T07:33:05.965Z,984.44
2023-05-19T07:34:05.994Z,984.43
2023-05-19T07:35:05.819Z,984.42
2023-05-19T07:36:05.963Z,984.37
2023-05-19T07:37:05.949Z,984.34
2023-05-19T07:38:05.794Z,984.41
2023-05-19T07:39:05.802Z,984.31
2023-05-19T07:40:05.774Z,984.28
2023-05-19T07:41:05.772Z,984.30
2023-05-19T07:42:05.741Z,984.36
2023-05-19T07:43:05.724Z,984.40
2023-05-19T07:44:05.711Z,984.36
2023-05-19T07:45:05.680Z,984.35
2023-05-19T07:46:05.761Z,984.41
2023-05-19T07:47:05.663Z,984.34
2023-05-19T07:48:05.718Z,984.29
2023-05-19T07:49:05.641Z,984.33
2023-05-19T07:50:05.652Z,984.33
2023-05-19T07:51:05.627Z,984.32
2023-05-19T07:52:05.613Z,984.26
2023-05-19T07:53:05.601Z,984.26
2023-05-19T07:54:05.592Z,984.22
2023-05-19T07:55:05.583Z,984.27
2023-05-19T07:56:05.562Z,984.30
2023-05-19T07:57:05.541Z,984.24
2023-05-19T07:58:05.534Z,984.30
2023-05-19T07:59:05.508Z,984.24
2023-05-19T08:00:05.517Z,984.27
2023-05-19T08:01:05.497Z,984.23
2023-05-19T08:02:05.518Z,984.29
2023-05-19T08:03:05.568Z,984.26
2023-05-19T08:04:05.630Z,984.26
2023-05-19T08:05:05.513Z,984.30
2023-05-19T08:06:05.437Z,984.27
2023-05-19T08:07:05.415Z,984.31
2023-05-19T08:08:05.400Z,984.29
2023-05-19T08:09:05.402Z,984.29
2023-05-19T08:10:05.364Z,984.28
2023-05-19T08:11:05.357Z,984.27
2023-05-19T08:12:05.353Z,984.26
2023-05-19T08:13:05.339Z,984.31
2023-05-19T08:14:05.337Z,984.21
2023-05-19T08:15:05.307Z,984.25
2023-05-19T08:16:05.387Z,984.25
2023-05-19T08:17:05.288Z,984.28
2023-05-19T08:18:05.458Z,984.30
2023-05-19T08:19:05.379Z,984.24
2023-05-19T08:20:05.246Z,984.22
2023-05-19T08:21:05.242Z,984.23
2023-05-19T08:22:05.237Z,984.23
2023-05-19T08:23:05.208Z,984.20
2023-05-19T08:24:05.194Z,984.26
2023-05-19T08:25:05.178Z,984.18
2023-05-19T08:26:05.164Z,984.21
2023-05-19T08:27:05.156Z,984.22
2023-05-19T08:28:05.146Z,984.14
2023-05-19T08:29:05.139Z,984.17
2023-05-19T08:30:05.110Z,984.17
2023-05-19T08:31:05.125Z,984.20
2023-05-19T08:32:05.085Z,984.18
2023-05-19T08:33:05.134Z,984.19
2023-05-19T08:34:05.057Z,984.22
2023-05-19T08:35:05.041Z,984.19
2023-05-19T08:36:05.061Z,984.24
2023-05-19T08:37:05.020Z,984.20
2023-05-19T08:38:05.025Z,984.16
2023-05-19T08:39:04.998Z,984.16
2023-05-19T08:40:04.965Z,984.08
2023-05-19T08:41:04.972Z,984.12
2023-05-19T08:42:04.949Z,984.10
2023-05-19T08:43:04.965Z,983.99
2023-05-19T08:44:04.919Z,984.04
2023-05-19T08:45:04.915Z,983.98
2023-05-19T08:46:04.880Z,984.04
2023-05-19T08:47:05.078Z,984.03
2023-05-19T08:48:04.892Z,984.03
2023-05-19T08:49:04.855Z,984.03
2023-05-19T08:50:04.847Z,983.95
2023-05-19T08:51:04.841Z,984.00
2023-05-19T08:52:04.826Z,984.05
2023-05-19T08:53:04.815Z,984.04
2023-05-19T08:54:04.844Z,984.08
2023-05-19T08:55:04.791Z,984.04
2023-05-19T08:56:04.779Z,984.03
2023-05-19T08:57:04.750Z,984.03
2023-05-19T08:58:04.751Z,984.02
2023-05-19T08:59:04.723Z,984.01
2023-05-19T09:00:04.707Z,984.05
2023-05-19T09:01:04.754Z,983.99
2023-05-19T09:02:04.678Z,983.95
2023-05-19T09:03:17.545Z,983.98
2023-05-19T09:04:05.786Z,983.97
2023-05-19T09:05:04.702Z,983.94
2023-05-19T09:06:04.694Z,983.96
2023-05-19T09:07:04.631Z,983.98
2023-05-19T09:08:04.616Z,983.92
2023-05-19T09:09:04.597Z,983.97
2023-05-19T09:10:04.577Z,983.93
2023-05-19T09:11:04.577Z,983.87
2023-05-19T09:12:04.546Z,983.85
2023-05-19T09:13:04.543Z,983.92
2023-05-19T09:14:04.532Z,983.91
2023-05-19T09:15:04.536Z,983.96
2023-05-19T09:16:04.599Z,983.87
2023-05-19T09:17:04.521Z,983.95
2023-05-19T09:18:04.503Z,983.90
2023-05-19T09:19:04.505Z,983.95
2023-05-19T09:20:04.456Z,983.98
2023-05-19T09:21:04.452Z,983.99
2023-05-19T09:22:04.424Z,983.90
2023-05-19T09:23:04.419Z,984.07
2023-05-19T09:24:04.398Z,983.95
2023-05-19T09:25:04.421Z,983.95
2023-05-19T09:26:04.369Z,984.01
2023-05-19T09:27:04.372Z,984.01
2023-05-19T09:28:04.350Z,984.01
2023-05-19T09:29:04.352Z,983.97
2023-05-19T09:30:04.341Z,983.96
2023-05-19T09:31:04.324Z,983.91
2023-05-19T09:32:04.340Z,983.98
2023-05-19T09:33:04.334Z,983.89
2023-05-19T09:34:04.295Z,983.93
2023-05-19T09:35:04.281Z,983.96
2023-05-19T09:36:04.251Z,983.88
2023-05-19T09:37:04.238Z,983.87
2023-05-19T09:38:04.222Z,983.89
2023-05-19T09:39:04.250Z,983.85
2023-05-19T09:40:04.203Z,983.85
2023-05-19T09:41:04.183Z,983.85
2023-05-19T09:42:04.168Z,983.88
2023-05-19T09:43:04.187Z,983.77
2023-05-19T09:44:04.153Z,983.91
2023-05-19T09:45:04.134Z,983.87
2023-05-19T09:46:04.164Z,983.89
2023-05-19T09:47:04.128Z,983.89
2023-05-19T10:03:30.384Z,983.63
2023-05-19T10:04:30.376Z,983.58
2023-05-19T10:05:30.325Z,983.66
2023-05-19T10:06:30.325Z,983.66
2023-05-19T10:07:30.317Z,983.58
2023-05-19T10:08:30.367Z,983.57
2023-05-19T10:09:30.279Z,983.55
2023-05-19T10:10:30.268Z,983.61
2023-05-19T10:11:30.272Z,983.53
2023-05-19T10:12:30.246Z,983.56
2023-05-19T10:13:30.249Z,983.51
2023-05-19T10:14:30.284Z,983.43
2023-05-19T10:15:30.334Z,983.46
2023-05-19T10:16:30.579Z,983.41
2023-05-19T10:17:30.227Z,983.44
2023-05-19T10:18:30.259Z,983.41
2023-05-19T10:19:30.268Z,983.35
2023-05-19T10:20:30.298Z,983.37
2023-05-19T10:21:30.135Z,983.35
2023-05-19T10:22:30.123Z,983.35
2023-05-19T10:23:30.109Z,983.32
2023-05-19T10:24:30.095Z,983.24
2023-05-19T10:25:30.085Z,983.29
2023-05-19T10:26:30.074Z,983.24
2023-05-19T10:27:30.049Z,983.25
2023-05-19T10:28:30.050Z,983.24
2023-05-19T10:29:30.031Z,983.29
2023-05-19T10:30:30.015Z,983.28
2023-05-19T10:31:30.032Z,983.20
2023-05-19T10:32:30.143Z,983.20
2023-05-19T10:33:29.975Z,983.16
2023-05-19T10:34:29.970Z,983.16
2023-05-19T10:35:30.624Z,983.15
2023-05-19T10:36:29.929Z,983.21
2023-05-19T10:37:29.942Z,983.15
2023-05-19T10:38:29.921Z,983.06
2023-05-19T10:39:29.905Z,983.04
2023-05-19T10:40:30.127Z,983.11
2023-05-19T10:41:29.878Z,983.04
2023-05-19T10:42:29.865Z,983.00
2023-05-19T10:43:29.852Z,983.12
2023-05-19T10:44:29.849Z,983.10
2023-05-19T10:45:29.813Z,983.12
2023-05-19T10:46:29.845Z,983.07
2023-05-19T10:47:29.904Z,982.99
2023-05-19T10:48:29.779Z,983.03
2023-05-19T10:49:29.781Z,983.04
2023-05-19T10:50:29.754Z,983.02
2023-05-19T10:51:29.748Z,983.05
2023-05-19T10:52:29.748Z,983.03
2023-05-19T10:53:29.712Z,983.00
2023-05-19T10:54:29.708Z,982.94
2023-05-19T10:55:29.690Z,983.02
2023-05-19T10:56:29.684Z,982.93
2023-05-19T10:57:29.657Z,982.88
2023-05-19T10:58:29.657Z,982.81
2023-05-19T10:59:29.694Z,982.86
2023-05-19T11:00:29.664Z,982.90
2023-05-19T11:01:29.641Z,982.76
2023-05-19T11:02:29.646Z,982.86
2023-05-19T11:04:29.717Z,982.82
2023-05-19T11:05:29.626Z,982.98
2023-05-19T11:06:29.592Z,983.00
2023-05-19T11:07:29.545Z,982.93
2023-05-19T11:08:29.535Z,982.92
2023-05-19T11:09:39.707Z,982.96
2023-05-19T11:10:30.504Z,982.99
2023-05-19T11:11:29.482Z,982.92
2023-05-19T11:12:29.498Z,982.94
2023-05-19T11:13:29.466Z,982.91
2023-05-19T11:14:29.449Z,982.88
2023-05-19T11:15:29.447Z,982.88
2023-05-19T11:16:29.445Z,982.86
2023-05-19T11:17:29.487Z,982.87
2023-05-19T11:18:29.398Z,982.89
2023-05-19T11:19:29.473Z,982.88
2023-05-19T11:20:29.367Z,982.91
2023-05-19T11:21:29.524Z,982.87
2023-05-19T11:22:29.368Z,982.89
2023-05-19T11:23:29.391Z,982.88
2023-05-19T11:24:29.350Z,982.83
2023-05-19T11:25:29.351Z,982.85
2023-05-19T11:26:29.313Z,982.86
2023-05-19T11:27:29.303Z,982.80
2023-05-19T11:28:29.285Z,982.83
2023-05-19T11:29:29.257Z,982.81
2023-05-19T11:30:29.263Z,982.74
2023-05-19T11:31:29.279Z,982.73
2023-05-19T11:32:29.321Z,982.83
2023-05-19T11:33:29.209Z,982.80
2023-05-19T11:34:29.203Z,982.82
2023-05-19T11:35:29.185Z,982.78
2023-05-19T11:36:29.180Z,982.78
2023-05-19T11:37:29.148Z,982.73
2023-05-19T11:38:29.156Z,982.74
2023-05-19T11:39:29.159Z,982.71
2023-05-19T11:40:29.149Z,982.75
2023-05-19T11:41:29.116Z,982.65
2023-05-19T11:42:29.167Z,982.62
2023-05-19T11:43:29.102Z,982.57
2023-05-19T11:44:29.109Z,982.62
2023-05-19T11:45:29.080Z,982.61
2023-05-19T11:46:29.092Z,982.63
2023-05-19T11:47:29.856Z,982.61
2023-05-19T11:48:29.041Z,982.62
2023-05-19T11:49:29.010Z,982.60
2023-05-19T11:50:29.008Z,982.55
2023-05-19T11:51:28.990Z,982.45
2023-05-19T11:52:28.977Z,982.54
2023-05-19T11:53:28.953Z,982.45
2023-05-19T11:54:28.952Z,982.54
2023-05-19T11:55:28.932Z,982.50
2023-05-19T11:56:28.925Z,982.52
2023-05-19T11:57:28.894Z,982.48
2023-05-19T11:58:28.895Z,982.45
2023-05-19T11:59:28.884Z,982.44
2023-05-19T12:00:28.876Z,982.42
2023-05-19T12:01:28.849Z,982.38
2023-05-19T12:02:28.870Z,982.32
2023-05-19T12:03:29.013Z,982.38
2023-05-19T12:04:28.888Z,982.34
2023-05-19T12:05:28.844Z,982.33
2023-05-19T12:06:28.854Z,982.29
2023-05-19T12:07:28.766Z,982.37
2023-05-19T12:08:28.780Z,982.31
2023-05-19T12:09:28.772Z,982.34
2023-05-19T12:10:28.739Z,982.28
2023-05-19T12:11:28.732Z,982.27
2023-05-19T12:12:28.707Z,982.27
2023-05-19T12:13:28.690Z,982.36
2023-05-19T12:14:28.685Z,982.35
2023-05-19T12:15:28.681Z,982.33
2023-05-19T12:16:29.717Z,982.32
2023-05-19T12:17:28.654Z,982.30
2023-05-19T12:18:28.640Z,982.34
2023-05-19T12:19:28.659Z,982.32
2023-05-19T12:20:28.610Z,982.28
2023-05-19T12:21:33.892Z,982.21
2023-05-19T12:22:29.588Z,982.21
2023-05-19T12:23:28.572Z,982.21
2023-05-19T12:24:28.554Z,982.18
2023-05-19T12:25:28.541Z,982.15
2023-05-19T12:26:28.522Z,982.18
2023-05-19T12:27:28.508Z,982.22
2023-05-19T12:28:28.505Z,982.18
2023-05-19T12:29:28.489Z,982.27
2023-05-19T12:30:28.494Z,982.32
2023-05-19T12:31:28.525Z,982.23
2023-05-19T12:32:28.475Z,982.27
2023-05-19T12:33:28.459Z,982.28
2023-05-19T12:34:28.442Z,982.26
2023-05-19T12:35:28.406Z,982.23
2023-05-19T12:36:28.405Z,982.22
2023-05-19T12:37:28.393Z,982.27
2023-05-19T12:38:28.385Z,982.15
2023-05-19T12:39:28.354Z,982.19
2023-05-19T12:40:28.349Z,982.24
2023-05-19T12:41:28.342Z,982.20
2023-05-19T12:42:28.333Z,982.15
2023-05-19T12:43:28.303Z,982.10
2023-05-19T12:44:28.317Z,982.13
2023-05-19T12:45:28.667Z,982.10
2023-05-19T12:46:28.310Z,982.12
2023-05-19T12:47:28.307Z,982.14
2023-05-19T12:48:28.239Z,982.14
2023-05-19T12:49:28.275Z,982.11
2023-05-19T12:50:28.203Z,982.11
2023-05-19T12:51:28.215Z,982.07
2023-05-19T12:52:28.197Z,982.05
2023-05-19T12:53:28.157Z,981.98
2023-05-19T12:54:28.192Z,982.07
2023-05-19T12:55:28.145Z,981.97
2023-05-19T12:56:28.170Z,981.97
2023-05-19T12:57:28.107Z,981.98